Time;durP1;ratioP1;P1;durP2;ratioP2;P2;SDS_P1;SDS_P2;PMS_P1;PMS_P2;Temp;Humidity;BMP_temperature;BMP_pressure;BME280_temperature;BME280_humidity;BME280_pressure;Samples;Min_cycle;Max_cycle;Signal;HPM_P1;HPM_P2
2022/09/27 00:00:32;;;;;;;6.33;2.20;;;;;;;;;;5081189;28;20212;-75
2022/09/27 00:02:58;;;;;;;3.50;2.07;;;;;;;;;;5079801;28;20195;-75
2022/09/27 00:05:25;;;;;;;1.90;1.70;;;;;;;;;;5083746;28;20195;-75
2022/09/27 00:07:51;;;;;;;3.20;2.10;;;;;;;;;;5072174;28;20268;-75
2022/09/27 00:10:18;;;;;;;3.23;2.00;;;;;;;;;;5081258;28;20201;-75
2022/09/27 00:12:44;;;;;;;3.83;1.80;;;;;;;;;;5081850;28;20638;-74
2022/09/27 00:15:11;;;;;;;2.57;1.90;;;;;;;;;;5079202;28;20208;-75
2022/09/27 00:17:38;;;;;;;3.17;1.80;;;;;;;;;;5074491;28;20189;-75
2022/09/27 00:20:05;;;;;;;2.33;1.93;;;;;;;;;;5067368;28;20413;-75
2022/09/27 00:22:31;;;;;;;2.63;1.77;;;;;;;;;;5077548;28;20180;-75
2022/09/27 00:24:58;;;;;;;2.47;1.70;;;;;;;;;;5077987;28;20196;-76
2022/09/27 00:27:25;;;;;;;2.03;1.83;;;;;;;;;;5062922;28;20187;-75
2022/09/27 00:29:51;;;;;;;3.17;2.20;;;;;;;;;;5063508;28;20247;-75
2022/09/27 00:32:17;;;;;;;2.50;2.00;;;;;;;;;;5059696;28;20176;-75
2022/09/27 00:34:44;;;;;;;2.40;1.70;;;;;;;;;;5056259;28;20292;-75
2022/09/27 00:37:10;;;;;;;2.03;1.83;;;;;;;;;;5078723;28;20217;-75
2022/09/27 00:39:38;;;;;;;2.83;2.10;;;;;;;;;;5065307;28;20201;-75
2022/09/27 00:42:05;;;;;;;2.70;1.80;;;;;;;;;;5060114;28;20192;-75
2022/09/27 00:44:37;;;;;;;2.10;1.67;;;;;;;;;;5061236;28;20192;-74
2022/09/27 00:47:21;;;;;;;1.63;1.53;;;;;;;;;;5060510;28;20181;-74
2022/09/27 00:49:53;;;;;;;2.60;1.90;;;;;;;;;;5077071;28;20211;-75
2022/09/27 00:52:23;;;;;;;2.33;1.90;;;;;;;;;;5062142;28;20621;-75
2022/09/27 00:54:51;;;;;;;3.40;1.73;;;;;;;;;;5064768;28;20753;-75
2022/09/27 00:57:18;;;;;;;2.10;1.90;;;;;;;;;;5046646;28;20234;-75
2022/09/27 00:59:47;;;;;;;2.33;1.60;;;;;;;;;;5059342;28;20224;-75
2022/09/27 01:02:15;;;;;;;1.97;1.70;;;;;;;;;;5061648;28;20221;-75
2022/09/27 01:04:42;;;;;;;2.63;1.80;;;;;;;;;;5079391;28;20195;-75
2022/09/27 01:07:08;;;;;;;2.17;1.80;;;;;;;;;;5078110;28;20242;-75
2022/09/27 01:09:34;;;;;;;2.57;1.70;;;;;;;;;;5057813;28;20224;-75
2022/09/27 01:12:13;;;;;;;1.60;1.50;;;;;;;;;;5067790;28;20287;-75
2022/09/27 01:14:57;;;;;;;2.27;1.60;;;;;;;;;;5077951;28;20208;-75
2022/09/27 01:17:30;;;;;;;2.43;1.30;;;;;;;;;;5067424;28;20172;-75
2022/09/27 01:20:14;;;;;;;2.33;1.50;;;;;;;;;;5085058;28;20223;-75
2022/09/27 01:23:01;;;;;;;1.73;1.33;;;;;;;;;;5062783;28;20184;-75
2022/09/27 01:25:33;;;;;;;1.40;1.30;;;;;;;;;;5052571;28;20283;-75
2022/09/27 01:28:09;;;;;;;1.40;1.30;;;;;;;;;;5063736;28;20195;-75
2022/09/27 01:30:38;;;;;;;1.57;1.47;;;;;;;;;;5073938;28;20233;-75
2022/09/27 01:33:34;;;;;;;2.03;1.50;;;;;;;;;;5068855;28;20212;-75
2022/09/27 01:36:06;;;;;;;2.50;1.30;;;;;;;;;;5044341;28;20263;-75
2022/09/27 01:38:38;;;;;;;2.63;1.70;;;;;;;;;;5047720;28;20184;-75
2022/09/27 01:41:12;;;;;;;1.70;1.47;;;;;;;;;;5067781;28;20238;-75
2022/09/27 01:43:38;;;;;;;1.70;1.60;;;;;;;;;;5081677;28;20181;-75
2022/09/27 01:46:10;;;;;;;2.13;1.30;;;;;;;;;;5062611;28;21274;-75
2022/09/27 01:48:58;;;;;;;2.63;1.57;;;;;;;;;;5064990;28;20257;-75
2022/09/27 01:51:27;;;;;;;1.60;1.50;;;;;;;;;;5064024;28;20181;-75
2022/09/27 01:53:56;;;;;;;2.10;1.60;;;;;;;;;;5090429;28;20173;-75
2022/09/27 01:56:24;;;;;;;1.80;1.63;;;;;;;;;;5085966;28;20177;-75
2022/09/27 01:58:58;;;;;;;1.60;1.50;;;;;;;;;;5068916;28;20554;-75
2022/09/27 02:01:26;;;;;;;2.83;1.93;;;;;;;;;;5068846;28;20899;-75
2022/09/27 02:03:54;;;;;;;2.10;1.90;;;;;;;;;;5069368;28;20610;-75
2022/09/27 02:06:42;;;;;;;2.53;1.90;;;;;;;;;;5080994;28;20181;-75
2022/09/27 02:09:30;;;;;;;3.43;2.00;;;;;;;;;;5065126;28;20287;-75
2022/09/27 02:12:19;;;;;;;3.20;1.80;;;;;;;;;;5086053;28;20176;-75
2022/09/27 02:14:49;;;;;;;2.80;2.03;;;;;;;;;;5084685;28;20221;-76
2022/09/27 02:17:25;;;;;;;1.80;1.67;;;;;;;;;;5057291;28;20181;-75
2022/09/27 02:19:58;;;;;;;2.37;2.13;;;;;;;;;;5067881;28;20263;-75
2022/09/27 02:22:39;;;;;;;4.07;2.13;;;;;;;;;;5057051;28;20264;-75
2022/09/27 02:25:11;;;;;;;3.73;2.10;;;;;;;;;;5061322;28;20192;-75
2022/09/27 02:27:50;;;;;;;5.47;1.90;;;;;;;;;;5058576;28;20188;-75
2022/09/27 02:30:19;;;;;;;4.83;2.13;;;;;;;;;;5060789;28;20200;-75
2022/09/27 02:32:51;;;;;;;3.40;2.10;;;;;;;;;;5068945;28;20185;-76
2022/09/27 02:35:17;;;;;;;3.43;1.90;;;;;;;;;;5062111;28;20205;-75
2022/09/27 02:37:44;;;;;;;2.37;1.60;;;;;;;;;;5047004;28;20177;-76
2022/09/27 02:40:12;;;;;;;3.30;1.63;;;;;;;;;;5066738;28;20571;-75
2022/09/27 02:42:40;;;;;;;3.10;1.57;;;;;;;;;;5059136;28;20192;-75
2022/09/27 02:45:06;;;;;;;3.53;1.80;;;;;;;;;;5066561;28;20333;-75
2022/09/27 02:47:35;;;;;;;2.30;1.50;;;;;;;;;;5064078;28;20267;-75
2022/09/27 02:50:24;;;;;;;1.63;1.43;;;;;;;;;;5065771;28;20211;-75
2022/09/27 02:53:30;;;;;;;3.30;1.80;;;;;;;;;;5070207;28;20184;-76
2022/09/27 02:56:21;;;;;;;1.83;1.60;;;;;;;;;;5063641;28;20643;-75
2022/09/27 02:59:17;;;;;;;1.53;1.43;;;;;;;;;;5057862;28;20168;-75
2022/09/27 03:01:56;;;;;;;2.73;1.70;;;;;;;;;;5060611;28;20173;-75
2022/09/27 03:04:34;;;;;;;2.70;1.63;;;;;;;;;;5064630;28;20774;-75
2022/09/27 03:07:01;;;;;;;2.23;1.60;;;;;;;;;;5081219;28;20181;-75
2022/09/27 03:09:41;;;;;;;3.80;1.80;;;;;;;;;;5064229;28;20764;-75
2022/09/27 03:12:07;;;;;;;4.23;2.10;;;;;;;;;;5062880;28;20183;-75
2022/09/27 03:14:33;;;;;;;3.83;1.67;;;;;;;;;;5084944;28;20204;-75
2022/09/27 03:17:07;;;;;;;3.07;1.83;;;;;;;;;;5062225;28;20225;-75
2022/09/27 03:19:54;;;;;;;4.33;2.13;;;;;;;;;;5074287;28;20759;-75
2022/09/27 03:22:39;;;;;;;5.17;2.20;;;;;;;;;;5059096;28;20275;-75
2022/09/27 03:25:06;;;;;;;4.87;2.10;;;;;;;;;;5061500;28;20199;-75
2022/09/27 03:27:32;;;;;;;3.37;2.00;;;;;;;;;;5076272;28;20699;-75
2022/09/27 03:29:59;;;;;;;3.37;2.30;;;;;;;;;;5060683;28;20759;-75
2022/09/27 03:32:26;;;;;;;3.80;2.60;;;;;;;;;;5060745;28;20179;-75
2022/09/27 03:35:12;;;;;;;4.10;2.70;;;;;;;;;;5079607;28;20216;-75
2022/09/27 03:37:39;;;;;;;5.60;2.73;;;;;;;;;;5061563;28;20444;-75
2022/09/27 03:40:06;;;;;;;4.80;2.90;;;;;;;;;;5059572;28;20200;-75
2022/09/27 03:42:33;;;;;;;3.50;2.33;;;;;;;;;;5043550;28;20180;-75
2022/09/27 03:45:00;;;;;;;4.40;2.40;;;;;;;;;;5062962;28;20185;-75
2022/09/27 03:47:26;;;;;;;3.37;2.60;;;;;;;;;;5044274;28;20264;-75
2022/09/27 03:49:52;;;;;;;2.97;2.30;;;;;;;;;;5061207;28;20205;-75
2022/09/27 03:52:19;;;;;;;3.07;2.27;;;;;;;;;;5076679;28;20208;-75
2022/09/27 03:54:45;;;;;;;3.13;2.50;;;;;;;;;;5044953;28;20212;-75
2022/09/27 03:57:11;;;;;;;3.57;2.10;;;;;;;;;;5061330;28;20181;-75
2022/09/27 03:59:39;;;;;;;3.70;1.80;;;;;;;;;;5061834;28;20209;-75
2022/09/27 04:02:43;;;;;;;4.77;2.10;;;;;;;;;;5078832;28;20394;-75
2022/09/27 04:05:25;;;;;;;3.20;2.10;;;;;;;;;;5078532;28;20264;-75
2022/09/27 04:08:06;;;;;;;2.80;2.10;;;;;;;;;;5061616;28;20195;-75
2022/09/27 04:10:33;;;;;;;3.67;2.00;;;;;;;;;;5060247;28;20205;-75
2022/09/27 04:13:00;;;;;;;2.80;2.00;;;;;;;;;;5061583;28;20245;-75
2022/09/27 04:15:30;;;;;;;2.33;1.70;;;;;;;;;;5064394;28;20208;-75
2022/09/27 04:18:15;;;;;;;2.50;1.87;;;;;;;;;;5077867;28;20180;-75
2022/09/27 04:21:02;;;;;;;3.57;1.80;;;;;;;;;;5062908;28;20208;-75
2022/09/27 04:23:29;;;;;;;2.97;1.60;;;;;;;;;;5059026;28;20763;-75
2022/09/27 04:25:56;;;;;;;2.33;1.50;;;;;;;;;;5066123;28;20293;-76
2022/09/27 04:28:41;;;;;;;1.73;1.43;;;;;;;;;;5062605;28;20697;-75
2022/09/27 04:31:07;;;;;;;2.53;1.40;;;;;;;;;;5059015;28;20207;-76
2022/09/27 04:33:49;;;;;;;3.67;1.40;;;;;;;;;;5057755;28;20189;-75
2022/09/27 04:36:25;;;;;;;1.83;1.50;;;;;;;;;;5057537;28;20797;-75
2022/09/27 04:39:01;;;;;;;2.93;1.50;;;;;;;;;;5055342;28;20177;-75
2022/09/27 04:41:28;;;;;;;5.00;2.30;;;;;;;;;;5057440;28;20179;-75
2022/09/27 04:43:55;;;;;;;2.73;2.17;;;;;;;;;;5059704;28;20177;-75
2022/09/27 04:46:21;;;;;;;3.17;1.93;;;;;;;;;;5041453;28;20185;-75
2022/09/27 04:48:48;;;;;;;2.38;1.58;;;;;;;;;;5065391;28;20955;-75
2022/09/27 04:51:16;;;;;;;3.73;1.87;;;;;;;;;;5048166;28;20204;-76
2022/09/27 04:53:46;;;;;;;2.70;1.70;;;;;;;;;;5066853;28;20346;-76
2022/09/27 04:56:13;;;;;;;1.90;1.70;;;;;;;;;;5061390;28;20302;-75
2022/09/27 04:58:40;;;;;;;1.77;1.30;;;;;;;;;;5066018;28;20252;-75
2022/09/27 05:01:08;;;;;;;2.67;1.20;;;;;;;;;;5062476;28;20300;-75
2022/09/27 05:04:06;;;;;;;2.03;1.43;;;;;;;;;;5056031;28;20198;-76
2022/09/27 05:06:35;;;;;;;3.70;1.60;;;;;;;;;;5062170;28;20227;-75
2022/09/27 05:09:07;;;;;;;2.37;1.50;;;;;;;;;;5069491;28;20187;-75
2022/09/27 05:11:46;;;;;;;3.10;1.43;;;;;;;;;;5070306;28;20185;-75
2022/09/27 05:14:15;;;;;;;2.87;1.70;;;;;;;;;;5078943;28;20217;-75
2022/09/27 05:16:54;;;;;;;2.60;1.70;;;;;;;;;;5083474;28;20177;-75
2022/09/27 05:19:32;;;;;;;2.70;1.47;;;;;;;;;;5062500;28;20262;-77
2022/09/27 05:22:07;;;;;;;2.93;1.67;;;;;;;;;;5067266;28;20702;-77
2022/09/27 05:24:34;;;;;;;2.00;1.60;;;;;;;;;;5084070;28;20544;-77
2022/09/27 05:27:01;;;;;;;2.40;1.50;;;;;;;;;;5069629;28;20625;-76
2022/09/27 05:29:27;;;;;;;2.83;1.53;;;;;;;;;;5062709;28;20211;-76
2022/09/27 05:32:05;;;;;;;1.43;1.33;;;;;;;;;;5062048;28;20641;-77
2022/09/27 05:34:33;;;;;;;3.60;1.50;;;;;;;;;;5063169;28;20212;-76
2022/09/27 05:36:59;;;;;;;1.50;1.40;;;;;;;;;;5063377;28;20701;-76
2022/09/27 05:39:26;;;;;;;4.07;1.50;;;;;;;;;;5060629;28;20575;-76
2022/09/27 05:41:54;;;;;;;1.50;1.20;;;;;;;;;;5081000;28;20225;-76
2022/09/27 05:44:20;;;;;;;3.90;1.40;;;;;;;;;;5064938;28;20282;-76
2022/09/27 05:46:54;;;;;;;1.67;1.30;;;;;;;;;;5061012;28;20831;-77
2022/09/27 05:49:21;;;;;;;2.93;1.33;;;;;;;;;;5060273;28;20735;-77
2022/09/27 05:51:47;;;;;;;2.37;1.57;;;;;;;;;;5059826;28;20280;-77
2022/09/27 05:54:13;;;;;;;2.87;1.43;;;;;;;;;;5065217;28;20213;-77
2022/09/27 05:56:40;;;;;;;1.83;1.30;;;;;;;;;;5070227;28;20184;-77
2022/09/27 05:59:33;;;;;;;1.47;1.37;;;;;;;;;;5070756;28;20241;-76
2022/09/27 06:02:18;;;;;;;1.73;1.30;;;;;;;;;;5078308;28;20176;-77
2022/09/27 06:05:03;;;;;;;2.43;1.40;;;;;;;;;;5074963;28;20177;-77
2022/09/27 06:07:50;;;;;;;5.50;1.33;;;;;;;;;;5087092;28;20196;-77
2022/09/27 06:10:28;;;;;;;1.87;1.33;;;;;;;;;;5062099;28;20205;-77
2022/09/27 06:12:58;;;;;;;2.37;1.57;;;;;;;;;;5067027;28;20335;-77
2022/09/27 06:15:32;;;;;;;2.63;1.53;;;;;;;;;;5063582;28;20694;-77
2022/09/27 06:18:09;;;;;;;2.13;1.63;;;;;;;;;;5064551;28;20185;-77
2022/09/27 06:20:37;;;;;;;3.27;1.70;;;;;;;;;;5079257;28;20246;-77
2022/09/27 06:23:12;;;;;;;1.73;1.40;;;;;;;;;;5066017;28;20173;-77
2022/09/27 06:25:39;;;;;;;2.30;1.60;;;;;;;;;;5090256;28;20172;-77
2022/09/27 06:28:20;;;;;;;2.03;1.50;;;;;;;;;;5066874;28;20177;-77
2022/09/27 06:30:49;;;;;;;2.40;1.47;;;;;;;;;;5068092;28;20204;-83
2022/09/27 06:33:24;;;;;;;2.17;1.60;;;;;;;;;;5070438;28;20195;-76
2022/09/27 06:35:52;;;;;;;1.30;1.20;;;;;;;;;;5074378;28;20200;-77
2022/09/27 06:38:20;;;;;;;1.70;1.33;;;;;;;;;;5073274;28;20641;-78
2022/09/27 06:41:03;;;;;;;1.53;1.30;;;;;;;;;;5073485;28;20207;-77
2022/09/27 06:43:38;;;;;;;1.50;1.40;;;;;;;;;;5073574;28;20664;-78
2022/09/27 06:46:23;;;;;;;1.80;1.20;;;;;;;;;;5091498;28;20644;-78
2022/09/27 06:49:08;;;;;;;1.50;1.17;;;;;;;;;;5087906;28;20191;-78
2022/09/27 06:51:35;;;;;;;2.50;1.13;;;;;;;;;;5063046;28;20185;-79
2022/09/27 06:54:01;;;;;;;1.93;1.43;;;;;;;;;;5066350;28;20185;-79
2022/09/27 06:56:27;;;;;;;1.40;1.17;;;;;;;;;;5063095;28;20189;-78
2022/09/27 07:01:42;;;;;;;2.30;1.30;;;;;;;;;;5084383;28;20185;-79
2022/09/27 07:04:38;;;;;;;1.40;1.10;;;;;;;;;;5045928;28;20209;-79
2022/09/27 07:07:25;;;;;;;1.80;1.20;;;;;;;;;;5066605;28;20267;-78
2022/09/27 07:09:52;;;;;;;1.47;1.03;;;;;;;;;;5069532;28;20237;-78
2022/09/27 07:12:23;;;;;;;0.90;0.90;;;;;;;;;;5068718;28;20181;-78
2022/09/27 07:14:49;;;;;;;3.00;1.20;;;;;;;;;;5087360;28;20788;-79
2022/09/27 07:17:17;;;;;;;2.83;1.10;;;;;;;;;;5065573;28;20177;-78
2022/09/27 07:19:46;;;;;;;1.03;0.90;;;;;;;;;;5059979;28;20208;-77
2022/09/27 07:22:12;;;;;;;2.20;1.17;;;;;;;;;;5066011;28;20717;-78
2022/09/27 07:24:40;;;;;;;2.20;1.30;;;;;;;;;;5066696;28;20185;-79
2022/09/27 07:27:07;;;;;;;1.33;1.10;;;;;;;;;;5065372;28;20200;-77
2022/09/27 07:29:33;;;;;;;1.17;1.07;;;;;;;;;;5066587;28;20246;-78
2022/09/27 07:32:00;;;;;;;1.97;0.90;;;;;;;;;;5068012;28;20260;-78
2022/09/27 07:34:27;;;;;;;1.33;1.00;;;;;;;;;;5065684;28;20216;-79
2022/09/27 07:36:53;;;;;;;1.10;1.00;;;;;;;;;;5066454;28;20173;-78
2022/09/27 07:39:23;;;;;;;1.80;0.90;;;;;;;;;;5065935;28;20283;-79
2022/09/27 07:41:49;;;;;;;1.93;1.00;;;;;;;;;;5063054;28;20191;-78
2022/09/27 07:44:16;;;;;;;1.80;1.07;;;;;;;;;;5065508;28;20254;-76
2022/09/27 07:47:06;;;;;;;1.33;0.90;;;;;;;;;;5064661;28;20181;-76
2022/09/27 07:49:53;;;;;;;1.03;0.90;;;;;;;;;;5072378;28;20608;-77
2022/09/27 07:52:50;;;;;;;1.60;1.03;;;;;;;;;;5043998;28;20192;-76
2022/09/27 07:55:36;;;;;;;1.20;1.10;;;;;;;;;;5064820;28;20212;-75
2022/09/27 07:58:13;;;;;;;1.17;0.80;;;;;;;;;;5078820;28;20229;-78
2022/09/27 08:00:40;;;;;;;1.73;0.97;;;;;;;;;;5056537;28;20213;-75
2022/09/27 08:03:14;;;;;;;3.90;1.10;;;;;;;;;;5066349;28;20811;-78
2022/09/27 08:05:41;;;;;;;2.80;1.20;;;;;;;;;;5064178;28;20188;-77
2022/09/27 08:08:08;;;;;;;2.43;0.90;;;;;;;;;;5063248;28;20184;-77
2022/09/27 08:10:34;;;;;;;0.97;0.80;;;;;;;;;;5054458;28;20205;-76
2022/09/27 08:13:02;;;;;;;1.73;0.90;;;;;;;;;;5063746;28;20694;-78
2022/09/27 08:15:30;;;;;;;2.20;1.00;;;;;;;;;;5063535;28;20233;-79
2022/09/27 08:17:56;;;;;;;1.30;0.90;;;;;;;;;;5064669;28;20471;-77
2022/09/27 08:20:41;;;;;;;1.20;0.90;;;;;;;;;;5078225;28;20204;-77
2022/09/27 08:23:24;;;;;;;1.20;0.80;;;;;;;;;;5062960;28;20256;-79
2022/09/27 08:26:04;;;;;;;1.30;1.00;;;;;;;;;;5065322;28;20195;-79
2022/09/27 08:28:44;;;;;;;1.50;0.90;;;;;;;;;;5068304;28;20173;-79
2022/09/27 08:31:17;;;;;;;3.00;1.10;;;;;;;;;;5050085;28;20524;-79
2022/09/27 08:33:43;;;;;;;2.03;1.30;;;;;;;;;;5051614;28;20215;-78
2022/09/27 08:36:11;;;;;;;1.67;1.10;;;;;;;;;;5064851;28;20959;-78
2022/09/27 08:38:37;;;;;;;1.23;1.13;;;;;;;;;;5059786;28;20887;-79
2022/09/27 08:41:07;;;;;;;1.13;1.03;;;;;;;;;;5053139;28;20238;-79
2022/09/27 08:43:36;;;;;;;1.10;0.90;;;;;;;;;;5051496;28;20196;-79
2022/09/27 08:46:11;;;;;;;1.33;1.10;;;;;;;;;;5063892;28;20264;-79
2022/09/27 08:48:37;;;;;;;1.20;1.10;;;;;;;;;;5063945;28;22431;-79
2022/09/27 08:51:05;;;;;;;1.07;1.00;;;;;;;;;;5066751;28;20232;-79
2022/09/27 08:53:36;;;;;;;1.30;1.00;;;;;;;;;;5071613;28;20181;-79
2022/09/27 08:56:03;;;;;;;1.10;1.00;;;;;;;;;;5067858;28;20283;-79
2022/09/27 08:58:39;;;;;;;1.30;0.97;;;;;;;;;;5069094;28;20277;-79
2022/09/27 09:01:13;;;;;;;1.50;1.20;;;;;;;;;;5051304;28;20218;-79
2022/09/27 09:03:47;;;;;;;1.80;1.10;;;;;;;;;;5068852;28;20333;-79
2022/09/27 09:06:14;;;;;;;1.17;1.07;;;;;;;;;;5065377;28;20181;-78
2022/09/27 09:08:47;;;;;;;2.17;1.27;;;;;;;;;;5070841;28;20211;-79
2022/09/27 09:14:04;;;;;;;1.90;1.00;;;;;;;;;;5068114;28;20237;-79
2022/09/27 09:16:37;;;;;;;1.73;1.10;;;;;;;;;;5053657;28;20683;-79
2022/09/27 09:19:11;;;;;;;2.23;1.10;;;;;;;;;;5066845;28;20678;-78
2022/09/27 09:22:07;;;;;;;2.70;1.40;;;;;;;;;;5058813;28;20204;-78
2022/09/27 09:24:46;;;;;;;1.87;1.20;;;;;;;;;;5069713;28;20177;-79
2022/09/27 09:27:13;;;;;;;1.10;1.00;;;;;;;;;;5046687;28;20216;-81
2022/09/27 09:29:54;;;;;;;1.33;1.20;;;;;;;;;;5079211;28;20247;-80
2022/09/27 09:32:21;;;;;;;3.20;1.17;;;;;;;;;;5070306;28;20562;-79
2022/09/27 09:34:50;;;;;;;1.40;1.20;;;;;;;;;;5072025;28;20204;-81
2022/09/27 09:37:20;;;;;;;3.50;1.27;;;;;;;;;;5068790;28;20192;-80
2022/09/27 09:39:58;;;;;;;2.23;1.00;;;;;;;;;;5066593;28;20572;-80
2022/09/27 09:42:47;;;;;;;2.90;1.40;;;;;;;;;;5081787;28;20172;-80
2022/09/27 09:45:18;;;;;;;3.10;1.30;;;;;;;;;;5062964;28;20220;-81
2022/09/27 09:47:49;;;;;;;2.43;1.43;;;;;;;;;;5054891;28;20190;-80
2022/09/27 09:50:51;;;;;;;1.10;1.00;;;;;;;;;;5064015;28;20287;-80
2022/09/27 09:53:23;;;;;;;2.13;1.10;;;;;;;;;;5012280;28;20258;-80
2022/09/27 09:56:00;;;;;;;2.90;1.20;;;;;;;;;;5073235;28;20316;-80
2022/09/27 09:58:40;;;;;;;1.60;1.17;;;;;;;;;;5071416;28;20548;-80
2022/09/27 10:01:34;;;;;;;3.03;1.40;;;;;;;;;;5079016;28;20358;-80
2022/09/27 10:04:00;;;;;;;1.70;1.27;;;;;;;;;;5057923;28;20283;-78
2022/09/27 10:06:28;;;;;;;2.97;1.33;;;;;;;;;;5071769;28;20181;-78
2022/09/27 10:08:55;;;;;;;1.43;1.20;;;;;;;;;;5067472;28;20192;-78
2022/09/27 10:11:36;;;;;;;2.60;1.47;;;;;;;;;;5064885;28;20185;-78
2022/09/27 10:14:11;;;;;;;2.80;1.37;;;;;;;;;;5069335;28;20188;-79
2022/09/27 10:16:41;;;;;;;2.30;1.70;;;;;;;;;;5052865;28;20213;-78
2022/09/27 10:19:08;;;;;;;3.30;1.60;;;;;;;;;;5064199;28;20223;-78
2022/09/27 10:21:38;;;;;;;3.57;1.70;;;;;;;;;;5047054;28;20188;-78
2022/09/27 10:24:07;;;;;;;1.67;1.50;;;;;;;;;;5068754;28;20196;-77
2022/09/27 10:26:58;;;;;;;1.70;1.60;;;;;;;;;;5062623;28;20212;-78
2022/09/27 10:29:35;;;;;;;2.70;1.93;;;;;;;;;;5062388;28;20587;-78
2022/09/27 10:32:03;;;;;;;3.50;1.30;;;;;;;;;;5054438;28;20191;-78
2022/09/27 10:34:41;;;;;;;2.10;1.30;;;;;;;;;;5037759;28;20517;-79
2022/09/27 10:37:22;;;;;;;1.43;1.30;;;;;;;;;;5069923;28;20180;-79
2022/09/27 10:40:16;;;;;;;4.10;1.47;;;;;;;;;;5067434;28;20728;-78
2022/09/27 10:42:43;;;;;;;1.70;1.40;;;;;;;;;;5081122;28;20173;-78
2022/09/27 10:45:26;;;;;;;2.80;1.53;;;;;;;;;;5045806;28;20219;-78
2022/09/27 10:48:18;;;;;;;4.63;1.90;;;;;;;;;;5044402;28;20181;-78
2022/09/27 10:50:56;;;;;;;2.57;1.60;;;;;;;;;;5064407;28;20212;-79
2022/09/27 10:53:35;;;;;;;4.03;1.60;;;;;;;;;;5063961;28;20184;-81
2022/09/27 10:56:19;;;;;;;3.33;1.97;;;;;;;;;;5068656;28;20789;-79
2022/09/27 10:58:45;;;;;;;3.67;1.83;;;;;;;;;;5068305;28;20189;-79
2022/09/27 11:01:13;;;;;;;1.93;1.67;;;;;;;;;;5068812;28;20220;-80
2022/09/27 11:03:59;;;;;;;4.30;1.90;;;;;;;;;;5081309;28;20961;-78
2022/09/27 11:06:26;;;;;;;2.57;1.90;;;;;;;;;;5064729;28;20244;-79
2022/09/27 11:08:54;;;;;;;3.00;2.10;;;;;;;;;;5066095;28;20185;-81
2022/09/27 11:11:25;;;;;;;2.57;1.80;;;;;;;;;;5065092;28;20197;-81
2022/09/27 11:14:04;;;;;;;2.97;2.10;;;;;;;;;;5065253;28;20188;-82
2022/09/27 11:16:32;;;;;;;4.10;2.07;;;;;;;;;;5073954;28;20265;-78
2022/09/27 11:19:02;;;;;;;2.43;1.73;;;;;;;;;;5064479;28;20184;-80
2022/09/27 11:21:47;;;;;;;2.60;1.90;;;;;;;;;;5079625;28;20185;-77
2022/09/27 11:24:23;;;;;;;4.50;1.80;;;;;;;;;;5063598;28;20671;-79
2022/09/27 11:27:09;;;;;;;2.63;1.70;;;;;;;;;;5036029;28;20196;-79
2022/09/27 11:29:35;;;;;;;3.97;1.70;;;;;;;;;;5071250;28;20200;-78
2022/09/27 11:32:29;;;;;;;1.63;1.40;;;;;;;;;;5090138;28;20230;-79
2022/09/27 11:35:01;;;;;;;2.07;1.33;;;;;;;;;;5047930;28;20204;-79
2022/09/27 11:37:27;;;;;;;1.63;1.33;;;;;;;;;;5053423;28;20879;-80
2022/09/27 11:40:00;;;;;;;4.00;1.40;;;;;;;;;;5069184;28;20211;-81
2022/09/27 11:42:48;;;;;;;3.53;1.30;;;;;;;;;;5071137;28;20188;-80
2022/09/27 11:45:32;;;;;;;3.50;1.60;;;;;;;;;;5066057;28;20187;-79
2022/09/27 11:47:59;;;;;;;2.03;1.60;;;;;;;;;;5065511;28;20660;-81
2022/09/27 11:50:41;;;;;;;2.17;1.50;;;;;;;;;;5066381;28;20750;-83
2022/09/27 11:53:15;;;;;;;4.03;2.17;;;;;;;;;;5057877;28;20203;-84
2022/09/27 11:55:52;;;;;;;2.73;2.00;;;;;;;;;;5060716;28;20230;-76
2022/09/27 11:58:23;;;;;;;3.30;2.23;;;;;;;;;;5064231;28;20195;-76
2022/09/27 12:00:51;;;;;;;4.10;2.30;;;;;;;;;;5045254;28;20256;-79
2022/09/27 12:03:24;;;;;;;4.60;2.00;;;;;;;;;;5059501;28;20257;-80
2022/09/27 12:06:11;;;;;;;2.67;1.77;;;;;;;;;;5041039;28;20375;-79
2022/09/27 12:08:47;;;;;;;1.93;1.20;;;;;;;;;;5061814;28;20235;-78
2022/09/27 12:11:17;;;;;;;1.77;1.20;;;;;;;;;;5062269;28;20292;-79
2022/09/27 12:13:46;;;;;;;1.90;1.40;;;;;;;;;;5057757;28;20184;-80
2022/09/27 12:16:15;;;;;;;1.80;1.17;;;;;;;;;;5078835;28;20754;-78
2022/09/27 12:18:41;;;;;;;1.80;1.10;;;;;;;;;;5049979;28;20228;-79
2022/09/27 12:21:24;;;;;;;1.10;1.00;;;;;;;;;;5063429;28;20191;-77
2022/09/27 12:23:58;;;;;;;1.73;0.90;;;;;;;;;;5078685;28;20192;-77
2022/09/27 12:26:42;;;;;;;2.70;1.00;;;;;;;;;;5060294;28;20185;-78
2022/09/27 12:29:18;;;;;;;0.80;0.80;;;;;;;;;;5055726;28;20719;-77
2022/09/27 12:32:03;;;;;;;2.50;1.00;;;;;;;;;;5082080;28;20223;-78
2022/09/27 12:34:42;;;;;;;1.00;0.90;;;;;;;;;;5062833;28;20193;-78
2022/09/27 12:37:17;;;;;;;1.47;0.90;;;;;;;;;;5063165;28;20192;-77
2022/09/27 12:39:50;;;;;;;1.30;0.90;;;;;;;;;;5085675;28;20212;-78
2022/09/27 12:42:27;;;;;;;1.30;0.83;;;;;;;;;;5067620;28;20199;-77
2022/09/27 12:44:58;;;;;;;1.60;0.93;;;;;;;;;;5071069;28;20199;-77
2022/09/27 12:47:43;;;;;;;1.03;0.93;;;;;;;;;;5067115;28;20192;-77
2022/09/27 12:50:19;;;;;;;1.67;1.10;;;;;;;;;;5064996;28;20208;-78
2022/09/27 12:52:49;;;;;;;1.33;1.10;;;;;;;;;;5065732;28;20197;-79
2022/09/27 12:55:36;;;;;;;3.57;1.17;;;;;;;;;;5056517;28;20228;-78
2022/09/27 12:58:21;;;;;;;1.47;1.20;;;;;;;;;;5067699;28;20667;-78
2022/09/27 13:01:12;;;;;;;1.40;1.13;;;;;;;;;;5064237;28;20257;-78
2022/09/27 13:03:59;;;;;;;1.27;1.00;;;;;;;;;;5066274;28;20204;-77
2022/09/27 13:06:46;;;;;;;2.53;1.30;;;;;;;;;;5085793;28;20187;-77
2022/09/27 13:09:34;;;;;;;2.23;1.27;;;;;;;;;;5072244;28;20267;-76
2022/09/27 13:12:10;;;;;;;2.37;1.30;;;;;;;;;;5062507;28;20269;-76
2022/09/27 13:14:58;;;;;;;1.20;1.10;;;;;;;;;;5064399;28;20220;-77
2022/09/27 13:17:31;;;;;;;2.30;1.20;;;;;;;;;;5062759;28;20707;-77
2022/09/27 13:19:58;;;;;;;2.33;1.20;;;;;;;;;;5084321;28;20232;-78
2022/09/27 13:22:27;;;;;;;1.33;1.20;;;;;;;;;;5064689;28;20177;-77
2022/09/27 13:25:01;;;;;;;2.03;1.20;;;;;;;;;;5066783;28;20711;-78
2022/09/27 13:27:55;;;;;;;2.10;1.50;;;;;;;;;;5064635;28;20259;-78
2022/09/27 13:30:28;;;;;;;2.23;1.50;;;;;;;;;;5066172;28;20196;-79
2022/09/27 13:33:12;;;;;;;2.33;1.40;;;;;;;;;;5038298;28;20190;-80
2022/09/27 13:36:19;;;;;;;1.73;1.40;;;;;;;;;;5061400;28;20781;-79
2022/09/27 13:38:53;;;;;;;1.60;1.30;;;;;;;;;;5087621;28;21242;-79
2022/09/27 13:41:20;;;;;;;2.30;1.37;;;;;;;;;;5066707;28;20620;-77
2022/09/27 13:44:12;;;;;;;2.53;1.20;;;;;;;;;;5062342;28;20268;-78
2022/09/27 13:46:50;;;;;;;1.73;1.00;;;;;;;;;;5060443;28;20181;-77
2022/09/27 13:49:20;;;;;;;2.70;1.13;;;;;;;;;;5068230;28;20190;-76
2022/09/27 13:52:19;;;;;;;3.50;1.10;;;;;;;;;;5077552;28;20173;-77
2022/09/27 13:54:50;;;;;;;1.10;1.00;;;;;;;;;;5064387;28;21154;-76
2022/09/27 13:57:35;;;;;;;0.80;0.80;;;;;;;;;;5059828;28;20223;-76
2022/09/27 14:00:05;;;;;;;0.90;0.90;;;;;;;;;;5064898;28;20212;-76
2022/09/27 14:03:22;;;;;;;0.80;0.80;;;;;;;;;;5063108;28;20189;-77
2022/09/27 14:05:58;;;;;;;0.70;0.70;;;;;;;;;;5063537;28;20187;-76
2022/09/27 14:08:30;;;;;;;0.80;0.80;;;;;;;;;;5081613;28;20184;-77
2022/09/27 14:10:56;;;;;;;1.70;0.80;;;;;;;;;;5051912;28;20258;-77
2022/09/27 14:13:24;;;;;;;2.40;1.03;;;;;;;;;;5065002;28;20181;-76
2022/09/27 14:16:03;;;;;;;0.80;0.80;;;;;;;;;;5066903;28;20204;-77
2022/09/27 14:18:29;;;;;;;2.13;1.30;;;;;;;;;;5065630;28;20827;-77
2022/09/27 14:21:09;;;;;;;5.13;4.40;;;;;;;;;;5066339;28;20284;-76
2022/09/27 14:23:50;;;;;;;4.60;4.20;;;;;;;;;;5063828;28;20188;-76
2022/09/27 14:26:26;;;;;;;2.37;2.00;;;;;;;;;;5064492;28;20211;-76
2022/09/27 14:28:53;;;;;;;1.90;1.30;;;;;;;;;;5062874;28;20184;-77
2022/09/27 14:31:30;;;;;;;1.33;0.80;;;;;;;;;;5063875;28;20686;-76
2022/09/27 14:34:13;;;;;;;0.67;0.67;;;;;;;;;;5062210;28;20668;-77
2022/09/27 14:39:36;;;;;;;1.17;0.73;;;;;;;;;;5063934;28;20199;-77
2022/09/27 14:42:20;;;;;;;2.60;0.80;;;;;;;;;;5061576;28;20271;-76
2022/09/27 14:44:47;;;;;;;0.70;0.70;;;;;;;;;;5079605;28;20193;-76
2022/09/27 14:47:23;;;;;;;1.20;0.97;;;;;;;;;;5081507;28;20272;-77
2022/09/27 14:49:51;;;;;;;1.07;0.90;;;;;;;;;;5066541;28;20200;-78
2022/09/27 14:52:20;;;;;;;2.67;0.80;;;;;;;;;;5082319;28;20192;-81
2022/09/27 14:54:55;;;;;;;1.10;1.00;;;;;;;;;;5081736;28;20844;-77
2022/09/27 14:57:21;;;;;;;1.20;1.00;;;;;;;;;;5076180;28;20534;-78
2022/09/27 14:59:47;;;;;;;1.47;1.10;;;;;;;;;;5089225;28;20570;-75
2022/09/27 15:02:21;;;;;;;1.83;1.20;;;;;;;;;;5080683;28;20176;-79
2022/09/27 15:04:50;;;;;;;2.07;1.30;;;;;;;;;;5089078;28;20195;-79
2022/09/27 15:07:16;;;;;;;1.93;1.20;;;;;;;;;;5088238;28;20579;-75
2022/09/27 15:09:44;;;;;;;1.67;1.57;;;;;;;;;;5082571;28;20201;-77
2022/09/27 15:12:13;;;;;;;3.63;1.67;;;;;;;;;;5075923;28;20184;-79
2022/09/27 15:14:41;;;;;;;1.53;1.20;;;;;;;;;;5077641;28;20558;-78
2022/09/27 15:17:14;;;;;;;1.70;1.23;;;;;;;;;;5079447;28;20177;-80
2022/09/27 15:19:55;;;;;;;1.97;1.77;;;;;;;;;;5080163;28;20204;-77
2022/09/27 15:22:23;;;;;;;2.30;1.50;;;;;;;;;;5080177;28;20176;-77
2022/09/27 15:24:49;;;;;;;2.87;2.00;;;;;;;;;;5080207;28;20281;-77
2022/09/27 15:27:17;;;;;;;2.57;1.67;;;;;;;;;;5061167;28;20187;-77
2022/09/27 15:29:51;;;;;;;3.47;2.03;;;;;;;;;;5063960;28;20223;-76
2022/09/27 15:32:19;;;;;;;2.63;1.80;;;;;;;;;;5080103;28;20307;-78